Time;durP1;ratioP1;P1;durP2;ratioP2;P2;SDS_P1;SDS_P2;PMS_P1;PMS_P2;Temp;Humidity;BMP_temperature;BMP_pressure;BME280_temperature;BME280_humidity;BME280_pressure;Samples;Min_cycle;Max_cycle;Signal;HPM_P1;HPM_P2
2022/06/21 00:02:28;;;;;;;6.53;1.80;;;27.70;92.50;;;;;;1872213;75;21068;-84
2022/06/21 00:04:59;;;;;;;2.55;1.30;;;27.80;92.10;;;;;;1886816;74;21147;-84
2022/06/21 00:07:31;;;;;;;2.37;1.20;;;27.80;92.40;;;;;;1868267;76;21135;-83
2022/06/21 00:10:01;;;;;;;4.25;1.72;;;27.80;92.40;;;;;;1850306;76;21236;-85
2022/06/21 00:12:32;;;;;;;3.50;1.50;;;27.80;92.40;;;;;;1867952;75;21127;-85
2022/06/21 00:15:04;;;;;;;6.25;1.52;;;27.80;92.50;;;;;;1798738;79;21204;-83
2022/06/21 00:17:35;;;;;;;4.62;1.72;;;27.80;92.30;;;;;;1855722;76;21673;-86
2022/06/21 00:20:07;;;;;;;5.40;1.72;;;27.90;92.20;;;;;;1870513;76;21692;-76
2022/06/21 00:22:38;;;;;;;4.87;1.87;;;27.90;92.30;;;;;;1868498;75;21063;-74
2022/06/21 00:25:12;;;;;;;5.47;1.52;;;28.00;92.40;;;;;;1863633;76;22308;-74
2022/06/21 00:27:43;;;;;;;2.75;1.40;;;27.90;92.10;;;;;;1853836;75;21149;-75
2022/06/21 00:30:15;;;;;;;3.20;1.55;;;28.00;92.00;;;;;;1835974;77;21166;-74
2022/06/21 00:32:49;;;;;;;3.77;1.30;;;28.00;91.80;;;;;;1833926;77;22220;-74
2022/06/21 00:35:22;;;;;;;4.47;1.67;;;28.10;91.80;;;;;;1838569;77;21677;-74
2022/06/21 00:37:55;;;;;;;4.67;1.65;;;28.10;91.70;;;;;;1827624;78;21154;-75
2022/06/21 00:40:28;;;;;;;3.17;1.70;;;28.10;91.60;;;;;;1808382;77;21249;-74
2022/06/21 00:43:02;;;;;;;7.22;2.02;;;28.10;92.20;;;;;;1805980;79;21701;-74
2022/06/21 00:45:35;;;;;;;3.25;1.70;;;28.10;92.30;;;;;;1802528;79;21758;-73
2022/06/21 00:48:09;;;;;;;5.65;1.50;;;28.20;91.90;;;;;;1808507;79;21588;-73
2022/06/21 00:50:42;;;;;;;4.97;1.50;;;28.20;91.80;;;;;;1802117;79;21167;-73
2022/06/21 00:53:16;;;;;;;4.05;1.45;;;28.30;92.00;;;;;;1809975;77;21617;-73
2022/06/21 00:55:49;;;;;;;3.50;1.22;;;28.30;91.80;;;;;;1844612;77;21152;-73
2022/06/21 00:58:23;;;;;;;6.90;1.30;;;28.40;91.80;;;;;;1810355;77;21209;-73
2022/06/21 01:00:56;;;;;;;7.33;1.45;;;28.40;91.70;;;;;;1826228;77;21123;-74
2022/06/21 01:03:30;;;;;;;3.75;1.75;;;28.50;91.50;;;;;;1838998;76;21660;-75
2022/06/21 01:06:03;;;;;;;3.80;1.60;;;28.50;91.50;;;;;;1822915;77;21096;-75
2022/06/21 01:08:37;;;;;;;9.00;1.70;;;28.60;91.50;;;;;;1805470;77;21239;-75
2022/06/21 01:11:10;;;;;;;3.92;1.30;;;28.70;91.40;;;;;;1837193;77;21179;-74
2022/06/21 01:13:43;;;;;;;4.28;1.52;;;28.80;91.10;;;;;;1826068;77;21174;-75
2022/06/21 01:16:16;;;;;;;5.90;1.80;;;28.80;91.20;;;;;;1850133;76;21265;-75
2022/06/21 01:18:48;;;;;;;3.60;1.98;;;28.80;91.20;;;;;;1849376;76;21205;-75
2022/06/21 01:21:21;;;;;;;5.28;1.87;;;28.90;91.40;;;;;;1829603;76;21252;-73
2022/06/21 01:23:54;;;;;;;3.55;1.47;;;28.90;91.30;;;;;;1806094;77;21166;-73
2022/06/21 01:26:28;;;;;;;4.37;1.55;;;29.00;91.10;;;;;;1843746;76;21719;-74
2022/06/21 01:29:01;;;;;;;4.72;1.80;;;29.10;90.90;;;;;;1847881;76;21642;-74
2022/06/21 01:31:34;;;;;;;2.50;1.42;;;29.20;90.80;;;;;;1841487;76;21612;-74
2022/06/21 01:34:08;;;;;;;4.95;1.52;;;29.30;90.70;;;;;;1822474;77;21657;-74
2022/06/21 01:36:40;;;;;;;2.70;1.40;;;29.40;90.60;;;;;;1823403;77;21770;-75
2022/06/21 01:39:15;;;;;;;4.62;1.40;;;29.50;90.60;;;;;;1830967;77;21168;-75
2022/06/21 01:41:48;;;;;;;3.25;1.70;;;29.50;90.30;;;;;;1807316;77;21551;-75
2022/06/21 01:44:22;;;;;;;3.98;1.70;;;29.60;90.30;;;;;;1817973;78;21575;-74
2022/06/21 01:46:54;;;;;;;3.12;1.30;;;29.80;90.30;;;;;;1827946;77;21182;-74
2022/06/21 01:49:27;;;;;;;6.22;1.42;;;29.80;90.00;;;;;;1842989;76;21077;-72
2022/06/21 01:52:01;;;;;;;3.80;1.32;;;29.90;89.60;;;;;;1848979;76;21674;-73
2022/06/21 01:54:35;;;;;;;3.22;1.32;;;30.00;89.70;;;;;;1852318;76;21213;-74
2022/06/21 01:57:07;;;;;;;4.08;1.80;;;30.10;89.50;;;;;;1841468;76;21083;-73
2022/06/21 01:59:40;;;;;;;2.45;1.37;;;30.20;89.20;;;;;;1841306;76;21601;-74
2022/06/21 02:02:14;;;;;;;5.20;1.47;;;30.30;88.60;;;;;;1852220;76;21601;-73
2022/06/21 02:04:47;;;;;;;4.40;1.55;;;30.40;88.50;;;;;;1856936;76;21585;-73
2022/06/21 02:07:20;;;;;;;3.70;1.60;;;30.40;88.50;;;;;;1798536;78;21170;-74
2022/06/21 02:10:37;;;;;;;3.65;1.25;;;30.50;88.30;;;;;;1827430;77;21245;-73
2022/06/21 02:12:55;;;;;;;4.03;1.37;;;30.60;87.40;;;;;;1778728;79;21135;-74
2022/06/21 02:15:29;;;;;;;5.33;2.47;;;30.70;86.70;;;;;;1804187;77;21679;-74
2022/06/21 02:18:02;;;;;;;5.58;1.90;;;30.70;86.30;;;;;;1814552;78;21650;-73
2022/06/21 02:20:36;;;;;;;3.27;1.60;;;30.80;86.90;;;;;;1799544;79;21265;-73
2022/06/21 02:23:08;;;;;;;5.12;1.52;;;30.90;86.80;;;;;;1825999;77;21548;-74
2022/06/21 02:25:41;;;;;;;3.85;1.67;;;30.90;86.40;;;;;;1810075;78;21670;-74
2022/06/21 02:28:15;;;;;;;5.00;1.67;;;31.10;86.50;;;;;;1812416;79;21219;-75
2022/06/21 02:30:48;;;;;;;6.83;1.45;;;31.10;86.30;;;;;;1833602;76;21127;-74
2022/06/21 02:33:21;;;;;;;4.42;1.67;;;31.20;85.30;;;;;;1834012;77;21111;-73
2022/06/21 02:35:55;;;;;;;4.37;1.15;;;31.30;85.50;;;;;;1824695;77;21186;-74
2022/06/21 02:38:31;;;;;;;4.40;1.87;;;31.40;84.90;;;;;;1818377;78;21084;-73
2022/06/21 02:41:04;;;;;;;5.67;1.60;;;31.40;84.60;;;;;;1809958;78;21690;-73
2022/06/21 02:43:37;;;;;;;4.20;1.35;;;31.50;84.70;;;;;;1818513;78;22071;-74
2022/06/21 02:46:10;;;;;;;3.20;1.40;;;31.60;84.80;;;;;;1806497;78;21170;-74
2022/06/21 02:48:44;;;;;;;3.22;1.37;;;31.70;82.40;;;;;;1810447;79;21329;-73
2022/06/21 02:51:17;;;;;;;4.03;1.47;;;31.80;82.20;;;;;;1803575;79;21183;-74
2022/06/21 02:53:50;;;;;;;3.35;1.20;;;31.90;82.10;;;;;;1814281;78;21189;-72
2022/06/21 02:56:24;;;;;;;3.62;1.47;;;31.90;81.90;;;;;;1807532;78;21579;-74
2022/06/21 02:58:57;;;;;;;4.75;1.50;;;32.00;82.10;;;;;;1809208;78;21155;-72
2022/06/21 03:01:30;;;;;;;2.42;1.15;;;32.10;79.60;;;;;;1809884;77;21100;-72
2022/06/21 03:04:02;;;;;;;3.92;1.70;;;32.10;80.30;;;;;;1887343;76;21196;-72
2022/06/21 03:06:34;;;;;;;4.12;1.27;;;32.20;80.00;;;;;;1880658;76;21143;-72
2022/06/21 03:09:07;;;;;;;3.45;1.37;;;32.20;78.70;;;;;;1876367;76;21577;-73
2022/06/21 03:11:41;;;;;;;3.33;1.40;;;32.30;78.60;;;;;;1871438;75;21211;-73
2022/06/21 03:14:14;;;;;;;4.20;1.20;;;32.40;79.50;;;;;;1866334;76;21690;-73
2022/06/21 03:16:46;;;;;;;3.40;1.10;;;32.50;76.00;;;;;;1874885;76;21228;-73
2022/06/21 03:19:19;;;;;;;4.65;1.70;;;32.60;76.60;;;;;;1878485;76;21569;-73
2022/06/21 03:21:50;;;;;;;6.28;1.00;;;32.70;76.70;;;;;;1867371;76;21177;-73
2022/06/21 03:24:23;;;;;;;3.22;1.00;;;32.70;76.30;;;;;;1886095;75;21130;-73
2022/06/21 03:26:57;;;;;;;4.58;1.20;;;32.70;79.40;;;;;;1878250;76;21584;-73
2022/06/21 03:29:30;;;;;;;4.15;1.70;;;32.70;76.10;;;;;;1874699;76;21202;-72
2022/06/21 03:32:04;;;;;;;2.70;1.00;;;32.60;76.50;;;;;;1875771;75;21142;-72
2022/06/21 03:34:35;;;;;;;3.62;1.30;;;32.60;77.30;;;;;;1870550;76;21197;-73
2022/06/21 03:37:07;;;;;;;4.58;1.30;;;32.60;75.40;;;;;;1862201;76;21682;-72
2022/06/21 03:42:12;;;;;;;2.60;1.10;;;32.70;76.80;;;;;;1857360;76;21705;-72
2022/06/21 03:44:46;;;;;;;3.45;1.07;;;32.70;76.30;;;;;;1803229;78;21159;-73
2022/06/21 03:47:19;;;;;;;3.60;1.30;;;32.80;75.60;;;;;;1872205;76;21594;-73
2022/06/21 03:49:54;;;;;;;2.37;1.00;;;32.80;75.80;;;;;;1870196;75;21154;-73
2022/06/21 03:54:59;;;;;;;3.60;1.20;;;33.00;73.70;;;;;;1873203;75;21071;-73
2022/06/21 03:57:32;;;;;;;3.77;1.30;;;33.00;74.40;;;;;;1871586;76;21154;-74
2022/06/21 04:00:06;;;;;;;6.72;2.30;;;33.00;74.30;;;;;;1865069;76;21154;-73
2022/06/21 04:02:39;;;;;;;5.53;1.60;;;33.10;74.20;;;;;;1868412;76;21627;-72
2022/06/21 04:05:12;;;;;;;3.30;1.65;;;33.20;75.40;;;;;;1869950;76;21523;-72
2022/06/21 04:07:46;;;;;;;4.47;1.22;;;33.20;74.00;;;;;;1867747;76;21614;-72
2022/06/21 04:10:20;;;;;;;2.27;1.10;;;33.20;75.60;;;;;;1820329;78;21871;-73
2022/06/21 04:12:53;;;;;;;3.47;1.22;;;33.30;74.20;;;;;;1867756;76;21606;-73
2022/06/21 04:15:26;;;;;;;5.58;1.40;;;33.30;74.20;;;;;;1866955;76;21628;-71
2022/06/21 04:18:00;;;;;;;8.28;2.37;;;33.30;72.20;;;;;;1860883;76;21705;-72
2022/06/21 04:20:34;;;;;;;2.30;1.10;;;33.30;72.70;;;;;;1862160;75;21606;-71
2022/06/21 04:23:07;;;;;;;4.95;1.32;;;33.30;71.50;;;;;;1865072;76;21136;-73
2022/06/21 04:25:40;;;;;;;3.95;1.47;;;33.30;72.50;;;;;;1860426;75;21262;-73
2022/06/21 04:28:14;;;;;;;5.15;1.60;;;33.30;72.70;;;;;;1860203;75;21583;-73
2022/06/21 04:30:47;;;;;;;5.97;1.50;;;33.40;73.20;;;;;;1863934;75;21714;-73
2022/06/21 04:33:21;;;;;;;4.45;1.20;;;33.40;73.00;;;;;;1838633;77;21692;-73
2022/06/21 04:35:54;;;;;;;2.65;1.32;;;33.50;73.50;;;;;;1835446;77;21150;-72
2022/06/21 04:38:29;;;;;;;3.50;1.52;;;33.50;73.20;;;;;;1832886;76;21242;-72
2022/06/21 04:41:02;;;;;;;3.65;1.40;;;33.60;71.50;;;;;;1815046;77;22490;-72
2022/06/21 04:43:36;;;;;;;2.90;1.30;;;33.70;72.50;;;;;;1811602;79;21681;-73
2022/06/21 04:46:10;;;;;;;3.83;1.10;;;33.70;71.60;;;;;;1808171;77;21602;-72
2022/06/21 04:48:43;;;;;;;3.65;1.30;;;33.70;72.30;;;;;;1833492;77;21440;-73
2022/06/21 04:51:16;;;;;;;4.42;1.90;;;33.80;72.30;;;;;;1841812;77;21224;-72
2022/06/21 04:53:50;;;;;;;3.37;1.22;;;33.80;73.10;;;;;;1816720;77;21804;-74
2022/06/21 04:56:23;;;;;;;2.65;1.37;;;33.70;71.30;;;;;;1799731;79;21197;-73
2022/06/21 04:58:55;;;;;;;3.25;1.30;;;33.70;73.50;;;;;;1845496;77;21627;-71
2022/06/21 05:01:29;;;;;;;2.33;1.30;;;33.70;71.00;;;;;;1799427;78;21575;-73
2022/06/21 05:04:01;;;;;;;3.95;1.20;;;33.80;70.80;;;;;;1820310;77;21209;-71
2022/06/21 05:06:33;;;;;;;5.42;1.80;;;33.80;71.70;;;;;;1823027;77;21132;-72
2022/06/21 05:09:04;;;;;;;2.35;1.27;;;33.80;70.60;;;;;;1828778;77;21645;-72
2022/06/21 05:11:35;;;;;;;3.27;1.45;;;33.80;71.70;;;;;;1839344;77;21500;-72
2022/06/21 05:14:06;;;;;;;5.10;1.47;;;33.90;70.60;;;;;;1844680;77;21213;-73
2022/06/21 05:16:40;;;;;;;2.50;1.10;;;33.90;71.00;;;;;;1843896;76;21657;-71
2022/06/21 05:19:15;;;;;;;3.58;1.47;;;33.90;71.70;;;;;;1802335;79;21630;-72
2022/06/21 05:21:48;;;;;;;3.30;1.30;;;34.00;71.60;;;;;;1844413;76;21954;-73
2022/06/21 05:24:20;;;;;;;3.25;1.30;;;34.00;71.20;;;;;;1850335;77;21118;-73
2022/06/21 05:26:53;;;;;;;2.90;1.40;;;34.00;71.00;;;;;;1849553;76;21630;-72
2022/06/21 05:29:26;;;;;;;4.78;1.20;;;34.00;72.50;;;;;;1842340;77;21197;-76
2022/06/21 05:32:00;;;;;;;2.25;1.25;;;34.00;71.90;;;;;;1812407;77;21178;-75
2022/06/21 05:34:33;;;;;;;3.80;1.42;;;34.10;71.30;;;;;;1792221;79;21261;-76
2022/06/21 05:37:07;;;;;;;2.98;1.30;;;34.10;70.80;;;;;;1793081;79;21159;-75
2022/06/21 05:39:40;;;;;;;2.52;1.17;;;34.20;71.40;;;;;;1803191;79;21607;-74
2022/06/21 05:42:14;;;;;;;3.52;1.50;;;34.20;70.80;;;;;;1800911;79;21588;-73
2022/06/21 05:44:48;;;;;;;4.78;1.45;;;34.30;69.30;;;;;;1809064;79;21172;-75
2022/06/21 05:47:22;;;;;;;4.12;1.50;;;34.40;70.00;;;;;;1792675;79;21592;-76
2022/06/21 05:49:54;;;;;;;4.03;1.40;;;34.30;68.60;;;;;;1805937;79;21196;-75
2022/06/21 05:52:27;;;;;;;3.27;1.40;;;34.30;70.00;;;;;;1790851;79;21624;-74
2022/06/21 05:55:02;;;;;;;3.08;1.40;;;34.30;70.70;;;;;;1803979;78;21070;-74
2022/06/21 05:57:35;;;;;;;2.90;1.35;;;34.30;71.20;;;;;;1803906;78;21196;-74
2022/06/21 06:00:07;;;;;;;2.27;1.35;;;34.20;69.50;;;;;;1766789;80;21123;-73
2022/06/21 06:02:42;;;;;;;3.17;1.60;;;34.10;69.80;;;;;;1800710;79;21227;-73
2022/06/21 06:05:15;;;;;;;3.15;1.45;;;34.10;70.50;;;;;;1793384;79;21170;-72
2022/06/21 06:07:48;;;;;;;2.30;1.30;;;34.20;71.00;;;;;;1788961;79;21201;-71
2022/06/21 06:10:22;;;;;;;2.20;1.27;;;34.20;71.30;;;;;;1794734;79;21107;-74
2022/06/21 06:13:01;;;;;;;4.10;1.42;;;34.10;70.80;;;;;;1805121;79;21119;-81
2022/06/21 06:15:37;;;;;;;4.15;1.42;;;34.10;71.00;;;;;;1793829;78;21243;-79
2022/06/21 06:18:10;;;;;;;3.45;1.47;;;34.10;71.10;;;;;;1804144;79;21215;-76
2022/06/21 06:20:44;;;;;;;2.40;1.20;;;34.20;71.40;;;;;;1809944;79;21151;-76
2022/06/21 06:23:17;;;;;;;3.58;1.50;;;34.20;67.90;;;;;;1771940;80;21718;-76
2022/06/21 06:25:51;;;;;;;3.30;1.30;;;34.20;69.40;;;;;;1806168;79;21795;-77
2022/06/21 06:28:24;;;;;;;1.80;1.02;;;34.20;70.30;;;;;;1775218;79;21192;-76
2022/06/21 06:30:58;;;;;;;5.97;1.50;;;34.20;69.40;;;;;;1787511;79;21725;-77
2022/06/21 06:33:31;;;;;;;4.30;1.30;;;34.20;69.50;;;;;;1807742;77;21711;-78
2022/06/21 06:36:06;;;;;;;3.62;1.22;;;34.30;69.80;;;;;;1864220;76;21085;-77
2022/06/21 06:38:38;;;;;;;3.00;1.20;;;34.20;69.80;;;;;;1868018;76;21108;-77
2022/06/21 06:41:11;;;;;;;3.42;1.37;;;34.20;70.00;;;;;;1865270;76;21405;-77
2022/06/21 06:43:44;;;;;;;3.25;1.30;;;34.20;69.70;;;;;;1795911;79;21165;-76
2022/06/21 06:46:18;;;;;;;3.08;1.67;;;34.10;69.90;;;;;;1804586;78;21190;-77
2022/06/21 06:48:49;;;;;;;2.52;1.50;;;34.10;71.10;;;;;;1870056;76;21133;-76
2022/06/21 06:51:22;;;;;;;2.70;1.67;;;34.20;69.60;;;;;;1867751;76;21088;-77
2022/06/21 06:53:55;;;;;;;2.47;1.30;;;34.20;68.30;;;;;;1857226;75;21658;-76
2022/06/21 06:56:29;;;;;;;2.75;1.35;;;34.20;68.60;;;;;;1808064;78;21544;-77
2022/06/21 06:59:03;;;;;;;3.12;1.40;;;34.20;69.00;;;;;;1863244;76;21053;-78
2022/06/21 07:01:37;;;;;;;2.77;1.35;;;34.20;68.50;;;;;;1871751;76;21127;-77
2022/06/21 07:04:11;;;;;;;3.22;1.20;;;34.20;69.00;;;;;;1858913;76;21130;-76
2022/06/21 07:06:45;;;;;;;2.95;1.90;;;34.20;68.60;;;;;;1866335;76;21512;-77
2022/06/21 07:09:19;;;;;;;3.27;1.45;;;34.10;68.90;;;;;;1859334;76;21246;-77
2022/06/21 07:11:52;;;;;;;2.00;1.27;;;34.20;68.20;;;;;;1867222;75;21682;-77
2022/06/21 07:14:26;;;;;;;3.60;1.42;;;34.20;69.40;;;;;;1865187;76;21851;-77
2022/06/21 07:17:02;;;;;;;2.52;1.22;;;34.20;69.50;;;;;;1868469;75;21194;-77
2022/06/21 07:19:33;;;;;;;;;;;34.40;69.50;;;;;;1864143;76;21170;-76
2022/06/21 07:22:05;;;;;;;5.28;1.90;;;34.40;70.20;;;;;;1870078;75;20566;-75
2022/06/21 07:24:36;;;;;;;4.90;2.02;;;34.50;68.10;;;;;;1869116;76;21075;-77
2022/06/21 07:27:11;;;;;;;2.75;1.40;;;34.50;67.20;;;;;;1872974;75;21191;-77
2022/06/21 07:29:44;;;;;;;4.35;1.80;;;34.50;67.70;;;;;;1863512;76;21532;-80
2022/06/21 07:32:17;;;;;;;2.33;1.17;;;34.50;68.70;;;;;;1867712;76;21674;-79
2022/06/21 07:34:51;;;;;;;3.15;1.50;;;34.50;68.50;;;;;;1860889;76;21903;-80
2022/06/21 07:37:24;;;;;;;3.80;1.20;;;34.50;68.00;;;;;;1874595;75;21131;-80
2022/06/21 07:39:57;;;;;;;3.12;1.40;;;34.50;67.60;;;;;;1870548;76;21085;-80
2022/06/21 07:42:31;;;;;;;2.60;1.40;;;34.50;67.70;;;;;;1868407;75;21144;-79
2022/06/21 07:45:04;;;;;;;2.77;1.00;;;34.40;67.10;;;;;;1863555;75;21257;-80
2022/06/21 07:47:37;;;;;;;2.75;1.40;;;34.30;67.60;;;;;;1862991;76;21257;-81
2022/06/21 07:50:11;;;;;;;3.22;1.20;;;34.20;68.60;;;;;;1855999;75;21222;-80
2022/06/21 07:52:44;;;;;;;3.05;1.35;;;34.30;68.10;;;;;;1855858;76;21193;-80
2022/06/21 07:55:22;;;;;;;3.22;1.60;;;34.30;67.80;;;;;;1864051;76;21121;-80
2022/06/21 07:57:52;;;;;;;3.95;1.52;;;34.20;68.50;;;;;;1867957;76;21099;-80
2022/06/21 08:00:26;;;;;;;2.37;1.42;;;34.20;66.90;;;;;;1885167;75;21063;-76
2022/06/21 08:08:08;;;;;;;2.30;1.07;;;34.30;67.20;;;;;;1868715;76;21151;-77
2022/06/21 08:10:42;;;;;;;2.17;1.10;;;34.40;66.30;;;;;;1858885;76;21084;-76
2022/06/21 08:13:13;;;;;;;6.33;1.65;;;34.30;67.10;;;;;;1870545;76;21206;-75
2022/06/21 08:15:47;;;;;;;4.72;2.05;;;34.30;67.60;;;;;;1872323;76;21126;-74
2022/06/21 08:18:21;;;;;;;2.37;1.32;;;34.30;68.00;;;;;;1870227;76;21075;-76
2022/06/21 08:20:57;;;;;;;3.27;1.07;;;34.20;66.90;;;;;;1869975;75;21655;-77
2022/06/21 08:23:30;;;;;;;4.03;1.30;;;34.20;66.70;;;;;;1863123;77;21156;-76
2022/06/21 08:26:03;;;;;;;2.77;1.42;;;34.20;67.30;;;;;;1872098;76;21208;-75
2022/06/21 08:28:36;;;;;;;2.55;1.30;;;34.20;67.80;;;;;;1874950;76;21548;-74
2022/06/21 08:31:10;;;;;;;3.47;1.30;;;34.20;67.00;;;;;;1880517;75;21124;-75
2022/06/21 08:33:43;;;;;;;3.90;1.52;;;34.20;67.00;;;;;;1860194;76;21175;-76
2022/06/21 08:36:17;;;;;;;4.47;1.50;;;34.30;66.40;;;;;;1861321;76;21548;-76
2022/06/21 08:38:50;;;;;;;2.98;1.37;;;34.30;67.40;;;;;;1880829;76;21537;-76
2022/06/21 08:43:58;;;;;;;4.55;1.27;;;34.30;65.80;;;;;;1869637;76;21673;-79
2022/06/21 08:46:31;;;;;;;2.72;1.10;;;34.30;65.60;;;;;;1874124;76;21687;-77
2022/06/21 08:49:06;;;;;;;1.98;0.98;;;34.20;65.30;;;;;;1884082;76;21140;-77
2022/06/21 08:51:40;;;;;;;2.60;1.40;;;34.20;64.30;;;;;;1874221;74;21154;-77
2022/06/21 08:54:13;;;;;;;2.50;1.30;;;34.20;64.10;;;;;;1883241;76;21603;-77
2022/06/21 08:56:47;;;;;;;2.70;1.07;;;34.20;66.70;;;;;;1884838;76;21635;-77
2022/06/21 08:59:21;;;;;;;2.08;0.90;;;34.20;65.10;;;;;;1885314;75;21139;-76
2022/06/21 09:01:54;;;;;;;3.83;1.15;;;34.20;66.70;;;;;;1882254;74;21057;-78
2022/06/21 09:04:28;;;;;;;3.25;1.00;;;34.20;66.50;;;;;;1869463;76;21624;-78
2022/06/21 09:07:01;;;;;;;2.80;1.30;;;34.10;66.20;;;;;;1879204;75;21705;-77
2022/06/21 09:09:35;;;;;;;1.75;0.90;;;34.10;65.80;;;;;;1858889;76;21783;-77
2022/06/21 09:12:08;;;;;;;3.67;1.20;;;34.10;66.40;;;;;;1844909;76;21597;-78
2022/06/21 09:14:42;;;;;;;3.08;1.07;;;34.10;66.50;;;;;;1814568;78;21698;-76
2022/06/21 09:17:16;;;;;;;2.95;1.35;;;34.10;66.10;;;;;;1813108;78;21209;-75
2022/06/21 09:19:49;;;;;;;3.12;1.22;;;34.00;67.60;;;;;;1817590;78;21633;-78
2022/06/21 09:22:23;;;;;;;2.17;1.32;;;34.00;67.10;;;;;;1808675;79;21686;-77
2022/06/21 09:24:58;;;;;;;2.60;1.40;;;34.10;67.20;;;;;;1843392;77;21675;-75
2022/06/21 09:27:31;;;;;;;3.15;1.30;;;34.10;66.80;;;;;;1839402;78;21088;-76
2022/06/21 09:30:04;;;;;;;2.15;1.22;;;34.20;68.30;;;;;;1836685;78;21690;-76
2022/06/21 09:32:38;;;;;;;3.40;1.30;;;34.20;67.20;;;;;;1812672;78;21708;-77
2022/06/21 09:35:12;;;;;;;5.55;1.40;;;34.20;66.60;;;;;;1834626;77;21563;-77
2022/06/21 09:37:45;;;;;;;5.25;1.30;;;34.30;66.60;;;;;;1875465;75;21630;-78
2022/06/21 09:40:19;;;;;;;2.52;1.02;;;34.30;66.70;;;;;;1863910;76;21136;-78
2022/06/21 09:42:53;;;;;;;3.72;1.35;;;34.30;64.50;;;;;;1864272;75;21182;-77
2022/06/21 09:45:27;;;;;;;3.75;1.20;;;34.40;65.20;;;;;;1868143;76;21076;-78
2022/06/21 09:48:00;;;;;;;2.87;1.10;;;34.30;66.00;;;;;;1805502;78;21584;-76
2022/06/21 09:50:34;;;;;;;4.33;1.12;;;34.30;65.50;;;;;;1870139;75;21671;-79
2022/06/21 09:53:07;;;;;;;2.52;1.25;;;34.30;66.50;;;;;;1872455;76;21226;-76
2022/06/21 09:55:41;;;;;;;3.70;1.00;;;34.20;65.70;;;;;;1868286;75;21631;-77
2022/06/21 09:58:14;;;;;;;2.95;1.10;;;34.20;66.80;;;;;;1863654;75;21159;-77
2022/06/21 10:00:48;;;;;;;3.77;1.07;;;34.20;65.10;;;;;;1869731;76;21626;-77
2022/06/21 10:03:22;;;;;;;3.20;1.10;;;34.20;66.60;;;;;;1835506;77;21136;-76
2022/06/21 10:05:55;;;;;;;2.47;1.30;;;34.10;67.00;;;;;;1869485;76;21524;-76
2022/06/21 10:08:29;;;;;;;3.20;1.22;;;34.10;67.10;;;;;;1882013;75;21639;-76
2022/06/21 10:11:02;;;;;;;5.35;1.50;;;34.10;66.00;;;;;;1855800;76;21685;-74
2022/06/21 10:13:36;;;;;;;3.22;1.30;;;34.10;66.20;;;;;;1865675;75;21081;-77
2022/06/21 10:16:10;;;;;;;4.22;1.40;;;34.00;66.50;;;;;;1868937;76;21141;-75
2022/06/21 10:18:44;;;;;;;1.95;1.17;;;34.00;66.60;;;;;;1870546;75;21167;-77
2022/06/21 10:21:17;;;;;;;4.28;1.37;;;33.90;66.90;;;;;;1873589;75;21604;-76
2022/06/21 10:23:51;;;;;;;5.40;1.40;;;33.90;67.50;;;;;;1869576;76;21116;-76
2022/06/21 10:26:24;;;;;;;5.10;2.22;;;33.80;67.60;;;;;;1869476;75;21150;-78
2022/06/21 10:28:57;;;;;;;6.85;2.80;;;33.80;67.50;;;;;;1872470;75;21096;-77
2022/06/21 10:31:31;;;;;;;2.70;1.47;;;33.80;67.40;;;;;;1873097;75;21162;-77
2022/06/21 10:34:05;;;;;;;5.42;1.65;;;33.80;67.00;;;;;;1871727;75;21656;-77
2022/06/21 10:36:38;;;;;;;4.40;1.67;;;33.70;67.10;;;;;;1873966;75;22390;-77
2022/06/21 10:39:12;;;;;;;3.25;1.40;;;33.70;66.90;;;;;;1874449;75;21779;-78
2022/06/21 10:42:46;;;;;;;4.30;1.80;;;33.70;67.40;;;;;;1874255;76;21172;-77
2022/06/21 10:44:20;;;;;;;4.17;1.50;;;33.60;66.90;;;;;;1839737;78;21134;-75
2022/06/21 10:46:53;;;;;;;3.10;1.70;;;33.60;67.10;;;;;;1841945;78;21677;-77
2022/06/21 10:49:27;;;;;;;2.77;1.70;;;33.50;67.10;;;;;;1864266;75;21151;-78
2022/06/21 10:52:00;;;;;;;2.52;1.55;;;33.50;67.20;;;;;;1870251;76;21181;-76
2022/06/21 10:54:34;;;;;;;2.45;1.37;;;33.50;67.30;;;;;;1875956;75;21594;-75
2022/06/21 10:57:10;;;;;;;7.30;1.55;;;33.50;67.10;;;;;;1901287;75;21097;-78
2022/06/21 11:02:17;;;;;;;2.90;1.65;;;33.40;68.10;;;;;;1900892;75;21151;-77
2022/06/21 11:04:51;;;;;;;3.30;1.55;;;33.40;68.30;;;;;;1901716;75;21253;-76
2022/06/21 11:07:24;;;;;;;5.92;1.70;;;33.30;68.20;;;;;;1901605;75;21221;-78
2022/06/21 11:09:57;;;;;;;5.80;1.67;;;33.40;67.70;;;;;;1900974;75;21081;-78
2022/06/21 11:15:05;;;;;;;4.80;1.52;;;33.30;67.80;;;;;;1847923;76;21259;-76
2022/06/21 11:17:39;;;;;;;3.00;1.50;;;33.20;68.20;;;;;;1849611;77;21641;-77
2022/06/21 11:20:13;;;;;;;3.17;1.47;;;33.30;68.00;;;;;;1843847;75;21072;-76
2022/06/21 11:22:46;;;;;;;4.28;1.50;;;33.20;67.80;;;;;;1842542;78;21642;-76
2022/06/21 11:25:19;;;;;;;2.60;1.40;;;33.20;67.70;;;;;;1842644;78;21630;-76
2022/06/21 11:27:53;;;;;;;3.60;1.32;;;33.20;68.60;;;;;;1842690;77;21547;-77
2022/06/21 11:30:27;;;;;;;4.28;1.50;;;33.20;67.80;;;;;;1869666;75;21147;-76
2022/06/21 11:33:01;;;;;;;5.00;1.37;;;33.20;67.60;;;;;;1875668;76;21081;-79
2022/06/21 11:35:34;;;;;;;5.03;1.62;;;33.20;67.80;;;;;;1875578;76;21080;-78
2022/06/21 11:38:08;;;;;;;4.30;1.30;;;33.20;68.20;;;;;;1870061;76;21654;-76
2022/06/21 11:40:42;;;;;;;2.95;1.77;;;33.20;68.70;;;;;;1849378;77;21709;-76
2022/06/21 11:43:15;;;;;;;3.37;1.65;;;33.10;68.70;;;;;;1850302;77;21151;-76
2022/06/21 11:45:49;;;;;;;5.53;1.70;;;33.10;69.10;;;;;;1849427;77;21163;-77
2022/06/21 11:48:23;;;;;;;3.10;1.47;;;33.10;68.30;;;;;;1849539;77;22123;-77
2022/06/21 11:51:00;;;;;;;3.35;1.60;;;33.00;68.40;;;;;;1849625;77;21166;-76
2022/06/21 11:53:33;;;;;;;3.77;1.70;;;33.00;68.50;;;;;;1851416;77;21065;-79
2022/06/21 11:56:09;;;;;;;5.83;1.60;;;33.00;69.20;;;;;;1869180;76;21189;-77
2022/06/21 11:58:44;;;;;;;2.98;1.65;;;33.00;69.30;;;;;;1850491;76;21232;-78
2022/06/21 12:01:17;;;;;;;4.62;2.35;;;33.00;69.60;;;;;;1853350;77;21560;-76
2022/06/21 12:03:51;;;;;;;8.28;2.58;;;33.00;69.70;;;;;;1854370;76;21606;-75
2022/06/21 12:06:29;;;;;;;8.10;3.45;;;32.90;69.90;;;;;;1877212;76;21234;-78
2022/06/21 12:09:02;;;;;;;8.53;4.05;;;32.90;70.10;;;;;;1892363;75;21205;-77
2022/06/21 12:11:38;;;;;;;8.43;4.70;;;32.90;70.30;;;;;;1883201;75;21205;-77
2022/06/21 12:14:12;;;;;;;6.53;4.03;;;32.90;70.40;;;;;;1844880;76;21601;-79
2022/06/21 12:16:45;;;;;;;7.53;3.50;;;32.90;70.50;;;;;;1871219;76;21146;-84
2022/06/21 12:19:19;;;;;;;8.33;3.62;;;32.90;70.50;;;;;;1886332;74;21047;-81
2022/06/21 12:21:55;;;;;;;6.35;3.33;;;32.90;70.70;;;;;;1889515;74;21079;-82
2022/06/21 12:24:27;;;;;;;;;;;32.90;70.60;;;;;;1887165;75;21049;-84
2022/06/21 12:26:58;;;;;;;6.15;3.15;;;32.90;70.60;;;;;;1885941;75;20143;-82
2022/06/21 12:29:29;;;;;;;4.85;3.17;;;32.90;70.60;;;;;;1888180;74;21102;-82
2022/06/21 12:32:02;;;;;;;3.65;2.12;;;32.90;70.90;;;;;;1882111;76;21178;-82
2022/06/21 12:34:35;;;;;;;6.45;1.87;;;32.90;70.90;;;;;;1895649;74;21091;-82
2022/06/21 12:37:09;;;;;;;4.12;2.08;;;32.90;70.30;;;;;;1890399;74;21621;-81
2022/06/21 12:42:26;;;;;;;4.83;2.37;;;32.90;70.40;;;;;;1901519;75;21109;-82
2022/06/21 12:45:00;;;;;;;4.20;2.25;;;32.90;70.60;;;;;;1876854;75;22156;-82
2022/06/21 12:47:33;;;;;;;8.18;3.00;;;32.90;70.80;;;;;;1887842;74;21071;-83
2022/06/21 12:50:06;;;;;;;6.78;4.00;;;32.90;71.30;;;;;;1898251;75;21106;-81
2022/06/21 12:52:42;;;;;;;10.38;4.95;;;32.90;71.50;;;;;;1888730;74;21258;-80
2022/06/21 12:55:15;;;;;;;9.78;4.62;;;32.90;71.50;;;;;;1883141;74;21211;-81
2022/06/21 12:57:48;;;;;;;12.18;5.47;;;32.90;71.70;;;;;;1818714;78;21175;-80
2022/06/21 13:00:22;;;;;;;8.48;4.83;;;32.90;71.60;;;;;;1824889;78;21195;-81
2022/06/21 13:02:55;;;;;;;10.28;5.12;;;32.90;71.80;;;;;;1844869;76;21095;-78
2022/06/21 13:05:29;;;;;;;9.30;5.70;;;32.90;71.50;;;;;;1838323;77;21204;-84
2022/06/21 13:08:02;;;;;;;7.70;4.95;;;32.90;71.50;;;;;;1840841;77;21205;-84
2022/06/21 13:10:35;;;;;;;8.78;5.40;;;32.90;71.50;;;;;;1845319;77;21154;-85
2022/06/21 13:13:09;;;;;;;11.60;6.05;;;32.80;71.60;;;;;;1832263;78;21235;-84
2022/06/21 13:15:49;;;;;;;13.03;6.42;;;32.80;71.70;;;;;;1876480;75;21082;-85
2022/06/21 13:18:30;;;;;;;18.80;8.03;;;32.80;71.90;;;;;;1893552;75;21071;-84
2022/06/21 13:21:04;;;;;;;13.93;7.50;;;32.80;72.20;;;;;;1889711;75;21138;-84
2022/06/21 13:23:38;;;;;;;13.50;7.25;;;32.80;72.00;;;;;;1889709;75;21220;-84
2022/06/21 13:26:11;;;;;;;15.23;7.75;;;32.80;72.10;;;;;;1891334;75;21072;-85
2022/06/21 13:28:45;;;;;;;11.80;6.90;;;32.80;72.10;;;;;;1904326;74;21205;-83
2022/06/21 13:31:19;;;;;;;13.25;6.87;;;32.80;72.40;;;;;;1893330;75;21157;-85
2022/06/21 13:33:52;;;;;;;19.40;7.28;;;32.80;72.60;;;;;;1894481;75;21103;-83
2022/06/21 13:36:30;;;;;;;15.00;7.33;;;32.80;73.00;;;;;;1901356;75;21767;-84
2022/06/21 13:39:00;;;;;;;15.95;7.92;;;32.80;74.10;;;;;;1896479;74;21153;-85
2022/06/21 13:44:08;;;;;;;14.70;7.22;;;32.70;73.80;;;;;;1889584;74;21188;-82